createdAt,value
2023-01-08T00:00:35.639Z,34.25
2023-01-08T00:03:05.470Z,35.08
2023-01-08T00:05:33.898Z,34.60
2023-01-08T00:08:02.072Z,34.53
2023-01-08T00:10:30.340Z,33.15
2023-01-08T00:12:58.499Z,34.10
2023-01-08T00:15:26.830Z,33.30
2023-01-08T00:17:54.968Z,33.80
2023-01-08T00:20:24.789Z,32.20
2023-01-08T00:22:52.952Z,32.05
2023-01-08T00:25:21.248Z,32.00
2023-01-08T00:27:49.544Z,30.13
2023-01-08T00:30:17.849Z,30.60
2023-01-08T00:32:45.913Z,32.50
2023-01-08T00:35:14.242Z,30.77
2023-01-08T00:37:43.865Z,29.88
2023-01-08T00:40:12.831Z,27.80
2023-01-08T00:42:41.062Z,28.75
2023-01-08T00:45:09.911Z,26.10
2023-01-08T00:47:38.079Z,27.40
2023-01-08T00:50:07.002Z,27.98
2023-01-08T00:52:35.199Z,28.50
2023-01-08T00:55:05.035Z,28.40
2023-01-08T00:57:35.015Z,26.73
2023-01-08T01:00:03.764Z,26.33
2023-01-08T01:02:32.248Z,26.40
2023-01-08T01:05:00.427Z,25.55
2023-01-08T01:07:28.565Z,26.25
2023-01-08T01:09:56.774Z,25.98
2023-01-08T01:12:26.334Z,24.75
2023-01-08T01:14:54.563Z,24.77
2023-01-08T01:17:22.731Z,27.35
2023-01-08T01:19:51.346Z,24.90
2023-01-08T01:22:19.559Z,25.60
2023-01-08T01:24:47.899Z,25.00
2023-01-08T01:27:16.079Z,24.60
2023-01-08T01:29:45.770Z,25.30
2023-01-08T01:32:14.023Z,25.75
2023-01-08T01:34:42.470Z,24.00
2023-01-08T01:37:10.796Z,22.45
2023-01-08T01:39:38.953Z,24.25
2023-01-08T01:42:07.239Z,23.80
2023-01-08T01:44:40.669Z,23.77
2023-01-08T01:47:14.823Z,23.23
2023-01-08T01:49:43.865Z,22.90
2023-01-08T01:52:12.201Z,21.95
2023-01-08T01:54:40.536Z,23.05
2023-01-08T01:57:08.745Z,23.48
2023-01-08T01:59:36.995Z,23.85
2023-01-08T02:02:05.195Z,22.50
2023-01-08T02:04:34.945Z,21.88
2023-01-08T02:07:05.552Z,22.55
2023-01-08T02:09:42.091Z,22.77
2023-01-08T02:12:18.370Z,21.95
2023-01-08T02:14:53.484Z,22.92
2023-01-08T02:17:25.073Z,20.35
2023-01-08T02:19:56.214Z,22.25
2023-01-08T02:22:32.311Z,21.40
2023-01-08T02:25:04.037Z,24.25
2023-01-08T02:27:33.748Z,21.20
2023-01-08T02:30:01.868Z,20.65
2023-01-08T02:32:30.367Z,20.95
2023-01-08T02:34:58.745Z,20.85
2023-01-08T02:37:27.092Z,20.17
2023-01-08T02:40:04.275Z,20.17
2023-01-08T02:42:38.119Z,20.92
2023-01-08T02:45:10.080Z,19.10
2023-01-08T02:47:40.667Z,19.75
2023-01-08T02:50:20.731Z,19.60
2023-01-08T02:52:52.222Z,19.70
2023-01-08T02:55:20.593Z,18.17
2023-01-08T02:57:50.231Z,19.02
2023-01-08T03:00:18.571Z,17.90
2023-01-08T03:02:46.709Z,18.60
2023-01-08T03:05:18.470Z,18.60
2023-01-08T03:07:46.784Z,18.58
2023-01-08T03:10:15.009Z,19.67
2023-01-08T03:12:50.471Z,18.98
2023-01-08T03:15:22.285Z,18.52
2023-01-08T03:17:51.756Z,18.05
2023-01-08T03:20:21.405Z,16.58
2023-01-08T03:22:51.219Z,17.30
2023-01-08T03:25:19.709Z,17.35
2023-01-08T03:27:51.674Z,17.40
2023-01-08T03:30:20.021Z,18.27
2023-01-08T03:32:48.328Z,17.15
2023-01-08T03:35:18.368Z,17.50
2023-01-08T03:37:48.131Z,17.48
2023-01-08T03:40:19.054Z,16.23
2023-01-08T03:42:47.342Z,17.23
2023-01-08T03:45:17.007Z,17.25
2023-01-08T03:47:45.755Z,15.05
2023-01-08T03:50:17.367Z,16.17
2023-01-08T03:52:45.645Z,17.13
2023-01-08T03:55:13.855Z,15.77
2023-01-08T03:57:42.220Z,16.60
2023-01-08T04:00:11.782Z,15.40
2023-01-08T04:02:42.571Z,15.65
2023-01-08T04:05:11.313Z,15.90
2023-01-08T04:07:39.576Z,16.50
2023-01-08T04:10:08.618Z,16.00
2023-01-08T04:12:36.785Z,14.13
2023-01-08T04:15:05.561Z,15.73
2023-01-08T04:17:33.795Z,14.93
2023-01-08T04:20:03.767Z,15.70
2023-01-08T04:22:32.014Z,16.15
2023-01-08T04:25:00.123Z,16.63
2023-01-08T04:27:28.271Z,16.55
2023-01-08T04:29:56.414Z,16.10
2023-01-08T04:32:24.620Z,14.75
2023-01-08T04:34:52.770Z,15.23
2023-01-08T04:37:22.534Z,14.90
2023-01-08T04:39:50.731Z,14.95
2023-01-08T04:42:18.808Z,14.27
2023-01-08T04:44:46.926Z,15.07
2023-01-08T04:47:15.049Z,14.05
2023-01-08T04:49:43.426Z,14.63
2023-01-08T04:52:11.561Z,13.90
2023-01-08T04:54:41.096Z,15.10
2023-01-08T04:57:09.345Z,13.57
2023-01-08T04:59:37.500Z,14.95
2023-01-08T05:02:05.727Z,14.90
2023-01-08T05:04:33.941Z,15.00
2023-01-08T05:07:02.026Z,13.73
2023-01-08T05:09:30.099Z,13.20
2023-01-08T05:11:59.619Z,13.70
2023-01-08T05:14:27.685Z,12.98
2023-01-08T05:16:55.819Z,16.67
2023-01-08T05:19:24.080Z,15.43
2023-01-08T05:21:52.443Z,14.50
2023-01-08T05:24:20.661Z,14.82
2023-01-08T05:26:48.858Z,14.35
2023-01-08T05:29:18.356Z,16.85
2023-01-08T05:31:46.654Z,14.07
2023-01-08T05:34:14.885Z,15.23
2023-01-08T05:36:43.365Z,12.82
2023-01-08T05:39:11.589Z,15.20
2023-01-08T05:41:39.998Z,15.10
2023-01-08T05:44:08.423Z,12.77
2023-01-08T05:46:38.175Z,14.43
2023-01-08T05:49:06.459Z,13.38
2023-01-08T05:51:34.522Z,15.13
2023-01-08T05:54:02.731Z,13.90
2023-01-08T05:56:30.819Z,13.45
2023-01-08T05:58:59.024Z,12.20
2023-01-08T06:01:27.312Z,14.52
2023-01-08T06:03:59.093Z,12.93
2023-01-08T06:06:27.301Z,12.57
2023-01-08T06:08:55.408Z,13.30
2023-01-08T06:11:23.718Z,12.50
2023-01-08T06:13:51.890Z,13.25
2023-01-08T06:16:21.181Z,13.48
2023-01-08T06:18:49.455Z,13.50
2023-01-08T06:21:19.080Z,13.13
2023-01-08T06:23:47.239Z,11.70
2023-01-08T06:26:15.371Z,12.85
2023-01-08T06:28:43.589Z,13.02
2023-01-08T06:31:11.828Z,12.07
2023-01-08T06:33:40.048Z,12.18
2023-01-08T06:36:09.149Z,13.20
2023-01-08T06:38:38.841Z,12.43
2023-01-08T06:41:07.242Z,13.68
2023-01-08T06:43:36.080Z,12.95
2023-01-08T06:46:04.961Z,13.32
2023-01-08T06:48:33.360Z,12.27
2023-01-08T06:51:02.873Z,13.75
2023-01-08T06:53:31.085Z,14.93
2023-01-08T06:56:00.926Z,13.02
2023-01-08T06:58:30.466Z,11.98
2023-01-08T07:00:59.560Z,13.25
2023-01-08T07:03:28.061Z,14.20
2023-01-08T07:05:56.464Z,21.38
2023-01-08T07:08:24.641Z,21.95
2023-01-08T07:10:52.767Z,24.20
2023-01-08T07:13:24.014Z,21.92
2023-01-08T07:15:52.223Z,19.88
2023-01-08T07:18:20.687Z,23.95
2023-01-08T07:20:49.753Z,29.17
2023-01-08T07:23:18.030Z,28.55
2023-01-08T07:25:47.539Z,27.33
2023-01-08T07:28:15.639Z,38.50
2023-01-08T07:30:45.370Z,47.30
2023-01-08T07:33:13.552Z,38.47
2023-01-08T07:35:42.191Z,57.13
2023-01-08T07:38:10.423Z,46.88
2023-01-08T07:40:39.607Z,58.10
2023-01-08T07:43:07.991Z,58.75
2023-01-08T07:45:36.187Z,54.28
2023-01-08T07:48:06.054Z,56.72
2023-01-08T07:50:34.175Z,62.28
2023-01-08T07:53:02.287Z,58.47
2023-01-08T07:55:31.295Z,55.58
2023-01-08T07:57:59.592Z,59.33
2023-01-08T08:00:27.885Z,57.75
2023-01-08T08:02:56.330Z,61.47
2023-01-08T08:05:26.050Z,67.63
2023-01-08T08:07:54.273Z,69.60
2023-01-08T08:10:22.442Z,78.35
2023-01-08T08:12:50.695Z,84.78
2023-01-08T08:15:18.862Z,82.63
2023-01-08T08:17:47.627Z,79.93
2023-01-08T08:20:16.046Z,77.40
2023-01-08T08:22:45.789Z,73.78
2023-01-08T08:25:15.334Z,76.32
2023-01-08T08:27:43.663Z,73.90
2023-01-08T08:30:13.369Z,70.30
2023-01-08T08:32:42.207Z,72.20
2023-01-08T08:35:10.877Z,66.63
2023-01-08T08:37:39.043Z,68.63
2023-01-08T08:40:10.266Z,65.30
2023-01-08T08:42:38.524Z,65.72
2023-01-08T08:45:08.072Z,66.55
2023-01-08T08:47:36.306Z,65.40
2023-01-08T08:50:04.751Z,65.05
2023-01-08T08:52:33.095Z,63.45
2023-01-08T08:55:01.523Z,64.85
2023-01-08T08:57:31.436Z,61.38
2023-01-08T09:00:01.302Z,62.53
2023-01-08T09:02:29.947Z,62.72
2023-01-08T09:04:58.296Z,60.83
2023-01-08T09:07:26.593Z,62.85
2023-01-08T09:09:54.669Z,59.78
2023-01-08T09:12:22.789Z,60.38
2023-01-08T09:14:53.594Z,61.70
2023-01-08T09:17:22.595Z,61.10
2023-01-08T09:19:50.750Z,60.25
2023-01-08T09:22:19.045Z,70.25
2023-01-08T09:24:47.262Z,70.53
2023-01-08T09:27:15.584Z,70.07
2023-01-08T09:29:43.989Z,84.55
2023-01-08T09:32:13.727Z,82.45
2023-01-08T09:34:42.369Z,78.35
2023-01-08T09:37:10.564Z,85.75
2023-01-08T09:39:41.146Z,89.28
2023-01-08T09:42:12.735Z,89.80
2023-01-08T09:44:42.137Z,79.85
2023-01-08T09:47:22.937Z,93.53
2023-01-08T09:49:51.143Z,95.75
2023-01-08T09:52:19.277Z,96.18
2023-01-08T09:54:47.486Z,96.32
2023-01-08T09:57:17.680Z,99.55
2023-01-08T09:59:48.002Z,97.10
2023-01-08T10:02:18.570Z,97.85
2023-01-08T10:04:46.879Z,101.55
2023-01-08T10:07:21.413Z,100.47
2023-01-08T10:09:50.755Z,99.88
2023-01-08T10:12:22.279Z,101.57
2023-01-08T10:14:50.682Z,99.35
2023-01-08T10:17:26.658Z,98.43
2023-01-08T10:19:54.831Z,95.80
2023-01-08T10:22:23.955Z,95.28
2023-01-08T10:24:52.188Z,93.05
2023-01-08T10:27:21.086Z,93.10
2023-01-08T10:29:50.901Z,95.50
2023-01-08T10:32:20.426Z,99.65
2023-01-08T10:34:51.311Z,93.57
2023-01-08T10:37:25.496Z,96.70
2023-01-08T10:39:54.037Z,89.72
2023-01-08T10:42:25.552Z,90.85
2023-01-08T10:44:59.692Z,90.03
2023-01-08T10:47:29.054Z,91.53
2023-01-08T10:49:58.695Z,92.15
2023-01-08T10:52:28.795Z,92.40
2023-01-08T10:54:57.118Z,87.22
2023-01-08T10:57:27.202Z,89.20
2023-01-08T10:59:55.530Z,84.35
2023-01-08T11:02:32.031Z,84.63
2023-01-08T11:05:01.673Z,84.45
2023-01-08T11:07:29.843Z,80.68
2023-01-08T11:09:58.104Z,79.10
2023-01-08T11:12:35.956Z,77.15
2023-01-08T11:15:04.472Z,74.70
2023-01-08T11:17:32.611Z,78.05
2023-01-08T11:20:10.729Z,76.75
2023-01-08T11:22:38.799Z,76.20
2023-01-08T11:25:07.358Z,77.82
2023-01-08T11:27:37.094Z,78.40
2023-01-08T11:30:06.965Z,75.30
2023-01-08T11:32:42.455Z,72.68
2023-01-08T11:35:17.204Z,72.07
2023-01-08T11:37:47.987Z,69.38
2023-01-08T11:40:16.865Z,76.13
2023-01-08T11:42:50.438Z,70.00
2023-01-08T11:45:23.190Z,72.35
2023-01-08T11:48:20.772Z,69.07
2023-01-08T11:50:59.748Z,67.28
2023-01-08T11:53:30.267Z,68.60
2023-01-08T11:56:06.119Z,63.97
2023-01-08T11:58:44.295Z,66.85
2023-01-08T12:01:19.047Z,65.75
2023-01-08T12:03:48.449Z,65.28
2023-01-08T12:06:28.318Z,64.28
2023-01-08T12:09:02.509Z,52.40
2023-01-08T12:11:31.933Z,48.60
2023-01-08T12:14:12.570Z,44.85
2023-01-08T12:16:48.545Z,44.47
2023-01-08T12:19:21.778Z,43.95
2023-01-08T12:22:01.564Z,42.92
2023-01-08T12:24:41.179Z,43.97
2023-01-08T12:27:13.581Z,44.53
2023-01-08T12:30:02.995Z,43.78
2023-01-08T12:32:36.202Z,46.30
2023-01-08T12:35:06.742Z,44.42
2023-01-08T12:37:40.285Z,43.92
2023-01-08T12:40:15.131Z,45.33
2023-01-08T12:42:50.147Z,45.00
2023-01-08T12:45:22.003Z,45.00
2023-01-08T12:47:52.364Z,42.75
2023-01-08T12:50:26.251Z,44.00
2023-01-08T12:52:57.223Z,46.60
2023-01-08T12:55:33.394Z,46.28
2023-01-08T12:58:04.227Z,44.58
2023-01-08T13:00:36.306Z,41.08
2023-01-08T13:03:06.412Z,41.95
2023-01-08T13:05:35.412Z,40.90
2023-01-08T13:08:06.093Z,44.47
2023-01-08T13:10:36.814Z,42.00
2023-01-08T13:13:05.850Z,42.20
2023-01-08T13:15:34.168Z,40.67
2023-01-08T13:18:06.898Z,40.75
2023-01-08T13:20:35.089Z,42.13
2023-01-08T13:23:03.879Z,40.83
2023-01-08T13:25:34.713Z,42.50
2023-01-08T13:28:02.979Z,41.28
2023-01-08T13:30:39.445Z,40.95
2023-01-08T13:33:27.819Z,38.92
2023-01-08T13:36:15.567Z,40.38
2023-01-08T13:38:43.858Z,39.65
2023-01-08T13:41:29.453Z,38.58
2023-01-08T13:44:00.513Z,37.33
2023-01-08T13:46:28.693Z,40.65
2023-01-08T13:49:02.800Z,39.13
2023-01-08T13:51:48.661Z,37.47
2023-01-08T13:54:31.239Z,37.10
2023-01-08T13:57:05.789Z,37.95
2023-01-08T13:59:41.257Z,35.83
2023-01-08T14:02:27.873Z,35.72
2023-01-08T14:04:56.042Z,34.83
2023-01-08T14:07:24.868Z,35.88
2023-01-08T14:09:53.055Z,36.45
2023-01-08T14:12:24.107Z,36.00
2023-01-08T14:14:53.406Z,35.25
2023-01-08T14:17:22.516Z,36.55
2023-01-08T14:19:50.695Z,38.50
2023-01-08T14:22:20.708Z,41.17
2023-01-08T14:24:52.555Z,41.80
2023-01-08T14:27:26.113Z,44.45
2023-01-08T14:29:54.390Z,39.05
2023-01-08T14:32:23.524Z,40.10
2023-01-08T14:34:52.325Z,42.40
2023-01-08T14:37:20.534Z,41.92
2023-01-08T14:39:54.334Z,42.00
2023-01-08T14:42:42.286Z,43.97
2023-01-08T14:45:17.535Z,42.90
2023-01-08T14:47:46.975Z,42.70
2023-01-08T14:50:19.679Z,39.47
2023-01-08T14:52:47.844Z,47.00
2023-01-08T14:55:18.597Z,40.58
2023-01-08T14:57:46.924Z,41.17
2023-01-08T15:00:20.724Z,40.55
2023-01-08T15:02:49.000Z,48.30
2023-01-08T15:05:19.343Z,42.80
2023-01-08T15:07:57.207Z,48.13
2023-01-08T15:10:36.043Z,55.08
2023-01-08T15:13:07.588Z,45.90
2023-01-08T15:15:41.935Z,43.85
2023-01-08T15:18:10.359Z,49.83
2023-01-08T15:20:38.510Z,51.90
2023-01-08T15:23:06.636Z,53.22
2023-01-08T15:25:34.886Z,56.50
2023-01-08T15:28:04.172Z,56.03
2023-01-08T15:30:35.827Z,55.42
2023-01-08T15:33:19.041Z,54.22
2023-01-08T15:35:47.240Z,59.33
2023-01-08T15:38:15.444Z,58.42
2023-01-08T15:40:43.699Z,62.33
2023-01-08T15:43:12.052Z,59.70
2023-01-08T15:45:40.922Z,58.70
2023-01-08T15:48:09.263Z,58.85
2023-01-08T15:50:40.032Z,57.83
2023-01-08T15:53:13.080Z,59.40
2023-01-08T15:55:43.676Z,57.40
2023-01-08T15:58:12.891Z,58.22
2023-01-08T16:00:41.223Z,56.40
2023-01-08T16:03:09.517Z,56.08
2023-01-08T16:05:39.175Z,56.83
2023-01-08T16:08:09.656Z,54.13
2023-01-08T16:10:38.360Z,53.97
2023-01-08T16:13:06.436Z,54.17
2023-01-08T16:15:34.678Z,58.70
2023-01-08T16:18:02.871Z,53.95
2023-01-08T16:20:31.211Z,58.58
2023-01-08T16:23:01.223Z,55.03
2023-01-08T16:25:29.453Z,55.03
2023-01-08T16:27:57.607Z,55.65
2023-01-08T16:30:25.754Z,55.72
2023-01-08T16:32:54.003Z,56.33
2023-01-08T16:35:22.830Z,53.70
2023-01-08T16:37:51.052Z,55.45
2023-01-08T16:40:20.728Z,56.90
2023-01-08T16:42:48.866Z,55.22
2023-01-08T16:45:16.969Z,55.15
2023-01-08T16:47:45.102Z,52.55
2023-01-08T16:50:13.290Z,52.13
2023-01-08T16:52:41.511Z,54.15
2023-01-08T16:55:10.957Z,52.58
2023-01-08T16:57:40.573Z,51.05
2023-01-08T17:00:09.930Z,51.00
2023-01-08T17:02:39.022Z,50.33
2023-01-08T17:05:08.178Z,51.65
2023-01-08T17:07:36.383Z,50.08
2023-01-08T17:10:04.989Z,48.65
2023-01-08T17:12:33.166Z,50.72
2023-01-08T17:15:02.678Z,45.95
2023-01-08T17:17:30.860Z,46.78
2023-01-08T17:19:58.924Z,60.15
2023-01-08T17:22:27.115Z,49.08
2023-01-08T17:24:55.208Z,46.40
2023-01-08T17:27:23.426Z,46.58
2023-01-08T17:29:51.619Z,46.92
2023-01-08T17:32:21.718Z,45.83
2023-01-08T17:34:50.018Z,45.70
2023-01-08T17:37:18.260Z,41.97
2023-01-08T17:39:46.437Z,43.53
2023-01-08T17:42:27.628Z,48.53
2023-01-08T17:44:57.200Z,40.42
2023-01-08T17:47:26.930Z,40.88
2023-01-08T17:49:56.141Z,44.17
2023-01-08T17:52:25.447Z,41.78
2023-01-08T17:54:53.910Z,41.92
2023-01-08T17:57:22.537Z,40.83
2023-01-08T17:59:50.777Z,40.65
2023-01-08T18:02:19.191Z,40.70
2023-01-08T18:04:49.115Z,39.47
2023-01-08T18:07:17.335Z,39.25
2023-01-08T18:09:45.944Z,37.97
2023-01-08T18:12:14.061Z,40.50
2023-01-08T18:14:42.154Z,52.20
2023-01-08T18:17:10.433Z,57.05
2023-01-08T18:19:38.493Z,57.15
2023-01-08T18:22:08.015Z,56.75
2023-01-08T18:24:36.161Z,60.00
2023-01-08T18:27:04.499Z,59.35
2023-01-08T18:29:32.670Z,56.63
2023-01-08T18:32:01.800Z,57.58
2023-01-08T18:34:30.177Z,58.88
2023-01-08T18:36:58.429Z,55.80
2023-01-08T18:39:29.976Z,58.75
2023-01-08T18:42:15.474Z,55.10
2023-01-08T18:44:43.592Z,55.85
2023-01-08T18:47:12.800Z,55.60
2023-01-08T18:49:41.050Z,58.03
2023-01-08T18:52:11.104Z,58.05
2023-01-08T18:54:40.819Z,49.03
2023-01-08T18:57:08.972Z,51.22
2023-01-08T18:59:37.335Z,53.13
2023-01-08T19:02:05.742Z,46.55
2023-01-08T19:04:34.271Z,47.38
2023-01-08T19:07:02.509Z,46.00
2023-01-08T19:09:30.846Z,45.67
2023-01-08T19:12:00.469Z,48.25
2023-01-08T19:14:28.781Z,47.42
2023-01-08T19:16:57.027Z,45.25
2023-01-08T19:19:25.350Z,48.33
2023-01-08T19:21:53.603Z,48.55
2023-01-08T19:24:21.887Z,47.85
2023-01-08T19:26:50.104Z,49.40
2023-01-08T19:29:19.860Z,48.17
2023-01-08T19:31:48.230Z,45.50
2023-01-08T19:34:16.683Z,50.63
2023-01-08T19:36:44.886Z,50.42
2023-01-08T19:39:13.231Z,51.20
2023-01-08T19:41:58.468Z,53.10
2023-01-08T19:44:28.072Z,53.17
2023-01-08T19:46:56.355Z,51.15
2023-01-08T19:49:25.664Z,49.88
2023-01-08T19:51:58.899Z,52.80
2023-01-08T19:54:28.374Z,52.90
2023-01-08T19:56:56.655Z,52.22
2023-01-08T19:59:25.004Z,52.45
2023-01-08T20:01:54.898Z,50.78
2023-01-08T20:04:23.325Z,49.50
2023-01-08T20:06:52.645Z,54.00
2023-01-08T20:09:20.946Z,52.90
2023-01-08T20:11:49.327Z,55.33
2023-01-08T20:14:19.275Z,55.05
2023-01-08T20:16:49.031Z,55.53
2023-01-08T20:19:21.437Z,53.30
2023-01-08T20:21:49.674Z,55.80
2023-01-08T20:24:17.864Z,54.63
2023-01-08T20:26:46.170Z,52.72
2023-01-08T20:29:14.584Z,52.97
2023-01-08T20:31:44.009Z,52.58
2023-01-08T20:34:14.391Z,51.20
2023-01-08T20:36:44.247Z,52.70
2023-01-08T20:39:13.717Z,51.35
2023-01-08T20:41:46.699Z,52.65
2023-01-08T20:44:29.168Z,53.08
2023-01-08T20:46:57.332Z,50.60
2023-01-08T20:49:26.876Z,51.80
2023-01-08T20:51:59.589Z,50.42
2023-01-08T20:54:28.285Z,49.83
2023-01-08T20:56:56.582Z,50.22
2023-01-08T20:59:25.369Z,49.10
2023-01-08T21:01:54.822Z,49.25
2023-01-08T21:04:23.131Z,48.40
2023-01-08T21:06:51.307Z,46.97
2023-01-08T21:09:20.931Z,45.92
2023-01-08T21:11:49.319Z,47.78
2023-01-08T21:14:17.541Z,48.35
2023-01-08T21:16:45.632Z,45.70
2023-01-08T21:19:18.002Z,48.75
2023-01-08T21:21:47.075Z,49.10
2023-01-08T21:24:15.669Z,47.90
2023-01-08T21:26:45.707Z,48.55
2023-01-08T21:29:14.798Z,47.15
2023-01-08T21:31:43.348Z,44.08
2023-01-08T21:34:11.855Z,45.00
2023-01-08T21:36:40.178Z,47.25
2023-01-08T21:39:08.294Z,43.97
2023-01-08T21:41:53.670Z,44.22
2023-01-08T21:44:41.319Z,45.40
2023-01-08T21:47:10.576Z,43.30
2023-01-08T21:49:38.906Z,44.53
2023-01-08T21:52:24.837Z,44.35
2023-01-08T21:54:53.860Z,42.70
2023-01-08T21:57:22.357Z,44.47
2023-01-08T21:59:52.133Z,41.78
2023-01-08T22:02:21.355Z,42.58
2023-01-08T22:04:49.442Z,42.75
2023-01-08T22:07:17.682Z,42.30
2023-01-08T22:09:46.003Z,41.80
2023-01-08T22:12:15.013Z,42.03
2023-01-08T22:14:43.255Z,43.92
2023-01-08T22:17:12.838Z,40.10
2023-01-08T22:19:41.169Z,39.58
2023-01-08T22:22:10.948Z,40.55
2023-01-08T22:24:39.489Z,40.08
2023-01-08T22:27:07.892Z,39.60
2023-01-08T22:29:36.326Z,39.85
2023-01-08T22:32:04.779Z,39.50
2023-01-08T22:34:34.462Z,39.35
2023-01-08T22:37:02.652Z,37.53
2023-01-08T22:39:30.994Z,41.28
2023-01-08T22:41:59.258Z,37.42
2023-01-08T22:44:27.559Z,40.25
2023-01-08T22:46:56.686Z,37.15
2023-01-08T22:49:24.933Z,37.08
2023-01-08T22:51:54.411Z,37.83
2023-01-08T22:54:22.607Z,37.47
2023-01-08T22:56:50.695Z,40.08
2023-01-08T22:59:19.179Z,36.35
2023-01-08T23:01:47.474Z,37.15
2023-01-08T23:04:16.175Z,35.70
2023-01-08T23:06:44.330Z,35.38
2023-01-08T23:09:13.873Z,35.80
2023-01-08T23:11:41.994Z,35.78
2023-01-08T23:14:10.692Z,34.58
2023-01-08T23:16:39.296Z,36.42
2023-01-08T23:19:07.608Z,34.70
2023-01-08T23:21:36.804Z,35.03
2023-01-08T23:24:05.651Z,34.08
2023-01-08T23:26:35.134Z,34.58
2023-01-08T23:29:03.299Z,34.00
2023-01-08T23:31:32.534Z,35.08
2023-01-08T23:34:00.807Z,33.08
2023-01-08T23:36:28.991Z,32.75
2023-01-08T23:38:57.186Z,31.35
2023-01-08T23:41:33.105Z,31.75
2023-01-08T23:44:05.615Z,31.75
2023-01-08T23:46:33.887Z,34.10
2023-01-08T23:49:02.108Z,33.80
2023-01-08T23:51:30.320Z,32.08
2023-01-08T23:53:58.435Z,31.38
2023-01-08T23:56:26.588Z,31.02
2023-01-08T23:58:54.872Z,32.22
